sensor_id;sensor_type;location;lat;lon;timestamp;temperature;humidity
30572;DHT22;17348;50.948;10.696;2022-09-13T00:01:10;13.90;99.90
30572;DHT22;17348;50.948;10.696;2022-09-13T00:04:12;13.80;99.90
30572;DHT22;17348;50.948;10.696;2022-09-13T00:07:15;13.80;99.90
30572;DHT22;17348;50.948;10.696;2022-09-13T00:10:17;13.80;99.90
30572;DHT22;17348;50.948;10.696;2022-09-13T00:13:20;13.80;99.90
30572;DHT22;17348;50.948;10.696;2022-09-13T00:16:25;13.80;99.90
30572;DHT22;17348;50.948;10.696;2022-09-13T00:19:28;13.80;99.90
30572;DHT22;17348;50.948;10.696;2022-09-13T00:22:30;13.80;99.90
30572;DHT22;17348;50.948;10.696;2022-09-13T00:25:32;13.80;99.90
30572;DHT22;17348;50.948;10.696;2022-09-13T00:28:36;13.90;99.90
30572;DHT22;17348;50.948;10.696;2022-09-13T00:31:38;13.90;99.90
30572;DHT22;17348;50.948;10.696;2022-09-13T00:34:41;13.90;99.90
30572;DHT22;17348;50.948;10.696;2022-09-13T00:37:43;13.90;99.90
30572;DHT22;17348;50.948;10.696;2022-09-13T00:40:46;13.90;99.90
30572;DHT22;17348;50.948;10.696;2022-09-13T00:43:51;14.00;99.90
30572;DHT22;17348;50.948;10.696;2022-09-13T00:46:53;14.00;99.90
30572;DHT22;17348;50.948;10.696;2022-09-13T00:49:57;13.90;99.90
30572;DHT22;17348;50.948;10.696;2022-09-13T00:53:06;14.00;99.90
30572;DHT22;17348;50.948;10.696;2022-09-13T00:56:13;13.90;99.90
30572;DHT22;17348;50.948;10.696;2022-09-13T00:59:23;13.90;99.90
30572;DHT22;17348;50.948;10.696;2022-09-13T01:02:26;13.90;99.90
30572;DHT22;17348;50.948;10.696;2022-09-13T01:05:32;13.90;99.90
30572;DHT22;17348;50.948;10.696;2022-09-13T01:08:38;13.90;99.90
30572;DHT22;17348;50.948;10.696;2022-09-13T01:11:45;13.90;99.90
30572;DHT22;17348;50.948;10.696;2022-09-13T01:14:50;13.90;99.90
30572;DHT22;17348;50.948;10.696;2022-09-13T01:17:53;13.90;99.90
30572;DHT22;17348;50.948;10.696;2022-09-13T01:21:19;13.90;99.90
30572;DHT22;17348;50.948;10.696;2022-09-13T01:24:55;13.80;99.90
30572;DHT22;17348;50.948;10.696;2022-09-13T01:28:16;13.90;99.90
30572;DHT22;17348;50.948;10.696;2022-09-13T01:31:25;13.90;99.90
30572;DHT22;17348;50.948;10.696;2022-09-13T01:34:34;13.90;99.90
30572;DHT22;17348;50.948;10.696;2022-09-13T01:37:49;13.90;99.90
30572;DHT22;17348;50.948;10.696;2022-09-13T01:40:59;13.90;99.90
30572;DHT22;17348;50.948;10.696;2022-09-13T01:44:07;13.90;99.90
30572;DHT22;17348;50.948;10.696;2022-09-13T01:47:23;13.90;99.90
30572;DHT22;17348;50.948;10.696;2022-09-13T01:50:36;13.90;99.90
30572;DHT22;17348;50.948;10.696;2022-09-13T01:53:46;13.80;99.90
30572;DHT22;17348;50.948;10.696;2022-09-13T01:56:53;13.90;99.90
30572;DHT22;17348;50.948;10.696;2022-09-13T02:00:00;13.90;99.90
30572;DHT22;17348;50.948;10.696;2022-09-13T02:03:09;14.00;99.90
30572;DHT22;17348;50.948;10.696;2022-09-13T02:06:16;14.00;99.90
30572;DHT22;17348;50.948;10.696;2022-09-13T02:09:22;14.10;99.90
30572;DHT22;17348;50.948;10.696;2022-09-13T02:12:28;14.10;99.90
30572;DHT22;17348;50.948;10.696;2022-09-13T02:15:33;14.20;99.90
30572;DHT22;17348;50.948;10.696;2022-09-13T02:18:40;14.10;99.90
30572;DHT22;17348;50.948;10.696;2022-09-13T02:21:47;14.10;99.90
30572;DHT22;17348;50.948;10.696;2022-09-13T02:24:54;14.10;99.90
30572;DHT22;17348;50.948;10.696;2022-09-13T02:28:00;14.20;99.90
30572;DHT22;17348;50.948;10.696;2022-09-13T02:31:07;14.20;99.90
30572;DHT22;17348;50.948;10.696;2022-09-13T02:34:16;14.30;99.90
30572;DHT22;17348;50.948;10.696;2022-09-13T02:37:22;14.30;99.90
30572;DHT22;17348;50.948;10.696;2022-09-13T02:40:41;14.50;99.90
30572;DHT22;17348;50.948;10.696;2022-09-13T02:43:47;14.60;99.90
30572;DHT22;17348;50.948;10.696;2022-09-13T02:47:03;14.70;99.90
30572;DHT22;17348;50.948;10.696;2022-09-13T02:50:22;14.80;99.90
30572;DHT22;17348;50.948;10.696;2022-09-13T02:53:33;14.80;99.90
30572;DHT22;17348;50.948;10.696;2022-09-13T02:56:47;14.90;99.90
30572;DHT22;17348;50.948;10.696;2022-09-13T02:59:51;15.00;99.90
30572;DHT22;17348;50.948;10.696;2022-09-13T03:02:57;15.10;99.90
30572;DHT22;17348;50.948;10.696;2022-09-13T03:06:02;15.20;99.90
30572;DHT22;17348;50.948;10.696;2022-09-13T03:09:05;15.20;99.90
30572;DHT22;17348;50.948;10.696;2022-09-13T03:12:31;15.30;99.90
30572;DHT22;17348;50.948;10.696;2022-09-13T03:15:44;15.30;99.90
30572;DHT22;17348;50.948;10.696;2022-09-13T03:18:55;15.30;99.90
30572;DHT22;17348;50.948;10.696;2022-09-13T03:22:14;15.30;99.90
30572;DHT22;17348;50.948;10.696;2022-09-13T03:25:30;15.30;99.90
30572;DHT22;17348;50.948;10.696;2022-09-13T03:28:40;15.40;99.90
30572;DHT22;17348;50.948;10.696;2022-09-13T03:31:49;15.40;99.90
30572;DHT22;17348;50.948;10.696;2022-09-13T03:35:00;15.40;99.90
30572;DHT22;17348;50.948;10.696;2022-09-13T03:38:09;15.50;99.90
30572;DHT22;17348;50.948;10.696;2022-09-13T03:41:16;15.50;99.90
30572;DHT22;17348;50.948;10.696;2022-09-13T03:44:22;15.50;99.90
30572;DHT22;17348;50.948;10.696;2022-09-13T03:47:26;15.60;99.90
30572;DHT22;17348;50.948;10.696;2022-09-13T03:50:30;15.60;99.90
30572;DHT22;17348;50.948;10.696;2022-09-13T03:53:36;15.60;99.90
30572;DHT22;17348;50.948;10.696;2022-09-13T03:56:40;15.60;99.90
30572;DHT22;17348;50.948;10.696;2022-09-13T03:59:46;15.60;99.90
30572;DHT22;17348;50.948;10.696;2022-09-13T04:02:48;15.70;99.90
30572;DHT22;17348;50.948;10.696;2022-09-13T04:05:51;15.80;99.90
30572;DHT22;17348;50.948;10.696;2022-09-13T04:08:54;15.70;99.90
30572;DHT22;17348;50.948;10.696;2022-09-13T04:11:57;15.80;99.90
30572;DHT22;17348;50.948;10.696;2022-09-13T04:14:59;15.80;99.90
30572;DHT22;17348;50.948;10.696;2022-09-13T04:18:01;15.70;99.90
30572;DHT22;17348;50.948;10.696;2022-09-13T04:21:04;15.80;99.90
30572;DHT22;17348;50.948;10.696;2022-09-13T04:24:08;15.80;99.90
30572;DHT22;17348;50.948;10.696;2022-09-13T04:27:11;15.70;99.90
30572;DHT22;17348;50.948;10.696;2022-09-13T04:30:13;15.70;99.90
30572;DHT22;17348;50.948;10.696;2022-09-13T04:33:16;15.70;99.90
30572;DHT22;17348;50.948;10.696;2022-09-13T04:36:18;15.70;99.90
30572;DHT22;17348;50.948;10.696;2022-09-13T04:39:22;15.70;99.90
30572;DHT22;17348;50.948;10.696;2022-09-13T04:42:24;15.70;99.90
30572;DHT22;17348;50.948;10.696;2022-09-13T04:45:27;15.80;99.90
30572;DHT22;17348;50.948;10.696;2022-09-13T04:48:29;15.80;99.90
30572;DHT22;17348;50.948;10.696;2022-09-13T04:51:31;15.70;99.90
30572;DHT22;17348;50.948;10.696;2022-09-13T04:54:35;15.80;99.90
30572;DHT22;17348;50.948;10.696;2022-09-13T04:57:37;15.80;99.90
30572;DHT22;17348;50.948;10.696;2022-09-13T05:00:40;15.80;99.90
30572;DHT22;17348;50.948;10.696;2022-09-13T05:03:42;15.90;99.90
30572;DHT22;17348;50.948;10.696;2022-09-13T05:06:44;16.00;99.90
30572;DHT22;17348;50.948;10.696;2022-09-13T05:09:49;16.00;99.90
30572;DHT22;17348;50.948;10.696;2022-09-13T05:12:51;16.00;99.90
30572;DHT22;17348;50.948;10.696;2022-09-13T05:15:54;16.00;99.90
30572;DHT22;17348;50.948;10.696;2022-09-13T05:18:57;16.00;99.90
30572;DHT22;17348;50.948;10.696;2022-09-13T05:22:00;16.00;99.90
30572;DHT22;17348;50.948;10.696;2022-09-13T05:25:04;15.90;99.90
30572;DHT22;17348;50.948;10.696;2022-09-13T05:28:07;15.90;99.90
30572;DHT22;17348;50.948;10.696;2022-09-13T05:31:12;15.90;99.90
30572;DHT22;17348;50.948;10.696;2022-09-13T05:34:16;16.00;99.90
30572;DHT22;17348;50.948;10.696;2022-09-13T05:37:19;16.10;99.90
30572;DHT22;17348;50.948;10.696;2022-09-13T05:40:23;16.20;99.90
30572;DHT22;17348;50.948;10.696;2022-09-13T05:43:26;16.20;99.90
30572;DHT22;17348;50.948;10.696;2022-09-13T05:46:29;16.30;99.90
30572;DHT22;17348;50.948;10.696;2022-09-13T05:49:31;16.40;99.90
30572;DHT22;17348;50.948;10.696;2022-09-13T05:52:33;16.50;99.90
30572;DHT22;17348;50.948;10.696;2022-09-13T05:55:36;16.60;99.90
30572;DHT22;17348;50.948;10.696;2022-09-13T05:58:40;16.70;99.90
30572;DHT22;17348;50.948;10.696;2022-09-13T06:01:42;16.80;99.90
30572;DHT22;17348;50.948;10.696;2022-09-13T06:04:45;16.80;99.90
30572;DHT22;17348;50.948;10.696;2022-09-13T06:07:47;17.00;99.90
30572;DHT22;17348;50.948;10.696;2022-09-13T06:10:54;17.00;99.90
30572;DHT22;17348;50.948;10.696;2022-09-13T06:13:57;17.10;99.90
30572;DHT22;17348;50.948;10.696;2022-09-13T06:16:59;17.20;99.90
30572;DHT22;17348;50.948;10.696;2022-09-13T06:20:02;17.30;99.90
30572;DHT22;17348;50.948;10.696;2022-09-13T06:23:04;17.30;99.90
30572;DHT22;17348;50.948;10.696;2022-09-13T06:26:09;17.30;99.90
30572;DHT22;17348;50.948;10.696;2022-09-13T06:29:13;17.40;99.90
30572;DHT22;17348;50.948;10.696;2022-09-13T06:32:18;17.50;99.90
30572;DHT22;17348;50.948;10.696;2022-09-13T06:35:20;17.60;99.90
30572;DHT22;17348;50.948;10.696;2022-09-13T06:38:22;17.60;99.90
30572;DHT22;17348;50.948;10.696;2022-09-13T06:41:26;17.60;99.90
30572;DHT22;17348;50.948;10.696;2022-09-13T06:44:28;17.60;99.90
30572;DHT22;17348;50.948;10.696;2022-09-13T06:47:30;17.70;99.90
30572;DHT22;17348;50.948;10.696;2022-09-13T06:50:33;17.70;99.90
30572;DHT22;17348;50.948;10.696;2022-09-13T06:53:36;17.80;99.90
30572;DHT22;17348;50.948;10.696;2022-09-13T06:56:39;17.80;99.90
30572;DHT22;17348;50.948;10.696;2022-09-13T06:59:42;17.80;99.90
30572;DHT22;17348;50.948;10.696;2022-09-13T07:02:49;17.90;99.90
30572;DHT22;17348;50.948;10.696;2022-09-13T07:05:52;17.90;99.90
30572;DHT22;17348;50.948;10.696;2022-09-13T07:08:55;17.80;99.90
30572;DHT22;17348;50.948;10.696;2022-09-13T07:11:59;17.80;99.90
30572;DHT22;17348;50.948;10.696;2022-09-13T07:15:01;17.80;99.90
30572;DHT22;17348;50.948;10.696;2022-09-13T07:18:04;17.90;99.90
30572;DHT22;17348;50.948;10.696;2022-09-13T07:21:09;17.90;99.90
30572;DHT22;17348;50.948;10.696;2022-09-13T07:24:11;17.90;99.90
30572;DHT22;17348;50.948;10.696;2022-09-13T07:27:15;17.90;99.90
30572;DHT22;17348;50.948;10.696;2022-09-13T07:30:17;18.00;99.90
30572;DHT22;17348;50.948;10.696;2022-09-13T07:33:19;18.00;99.90
30572;DHT22;17348;50.948;10.696;2022-09-13T07:36:22;18.00;99.90
30572;DHT22;17348;50.948;10.696;2022-09-13T07:39:24;18.00;99.90
30572;DHT22;17348;50.948;10.696;2022-09-13T07:42:28;18.10;99.90
30572;DHT22;17348;50.948;10.696;2022-09-13T07:45:32;18.10;99.90
30572;DHT22;17348;50.948;10.696;2022-09-13T07:48:38;18.20;99.90
30572;DHT22;17348;50.948;10.696;2022-09-13T07:51:42;18.10;99.90
30572;DHT22;17348;50.948;10.696;2022-09-13T07:54:45;18.20;99.90
30572;DHT22;17348;50.948;10.696;2022-09-13T07:57:51;18.30;99.90
30572;DHT22;17348;50.948;10.696;2022-09-13T08:00:53;18.30;99.90
30572;DHT22;17348;50.948;10.696;2022-09-13T08:03:57;18.50;99.90
30572;DHT22;17348;50.948;10.696;2022-09-13T08:07:00;18.60;99.90
30572;DHT22;17348;50.948;10.696;2022-09-13T08:10:02;18.70;99.90
30572;DHT22;17348;50.948;10.696;2022-09-13T08:13:06;18.80;99.90
30572;DHT22;17348;50.948;10.696;2022-09-13T08:16:08;19.00;99.90
30572;DHT22;17348;50.948;10.696;2022-09-13T08:19:13;19.10;99.90
30572;DHT22;17348;50.948;10.696;2022-09-13T08:22:15;19.20;99.90
30572;DHT22;17348;50.948;10.696;2022-09-13T08:25:18;19.30;99.90
30572;DHT22;17348;50.948;10.696;2022-09-13T08:28:21;19.40;99.90
30572;DHT22;17348;50.948;10.696;2022-09-13T08:31:27;19.50;99.90
30572;DHT22;17348;50.948;10.696;2022-09-13T08:34:29;19.50;99.90
30572;DHT22;17348;50.948;10.696;2022-09-13T08:37:31;19.50;99.90
30572;DHT22;17348;50.948;10.696;2022-09-13T08:40:39;19.60;99.90
30572;DHT22;17348;50.948;10.696;2022-09-13T08:43:49;19.60;99.90
30572;DHT22;17348;50.948;10.696;2022-09-13T08:47:01;19.70;99.90
30572;DHT22;17348;50.948;10.696;2022-09-13T08:50:18;19.80;99.90
30572;DHT22;17348;50.948;10.696;2022-09-13T08:53:24;19.90;99.90
30572;DHT22;17348;50.948;10.696;2022-09-13T08:56:37;19.90;99.90
30572;DHT22;17348;50.948;10.696;2022-09-13T08:59:49;20.10;99.90
30572;DHT22;17348;50.948;10.696;2022-09-13T09:03:12;20.20;99.90
30572;DHT22;17348;50.948;10.696;2022-09-13T09:06:16;20.20;99.90
30572;DHT22;17348;50.948;10.696;2022-09-13T09:09:20;20.30;99.90
30572;DHT22;17348;50.948;10.696;2022-09-13T09:12:27;20.40;99.90
30572;DHT22;17348;50.948;10.696;2022-09-13T09:15:35;20.50;99.90
30572;DHT22;17348;50.948;10.696;2022-09-13T09:18:39;20.60;99.90
30572;DHT22;17348;50.948;10.696;2022-09-13T09:21:46;20.70;99.90
30572;DHT22;17348;50.948;10.696;2022-09-13T09:24:53;20.70;99.90
30572;DHT22;17348;50.948;10.696;2022-09-13T09:27:57;20.80;99.90
30572;DHT22;17348;50.948;10.696;2022-09-13T09:31:08;20.80;99.90
30572;DHT22;17348;50.948;10.696;2022-09-13T09:34:19;21.00;99.90
30572;DHT22;17348;50.948;10.696;2022-09-13T09:37:24;21.10;99.90
30572;DHT22;17348;50.948;10.696;2022-09-13T09:40:27;21.20;99.90
30572;DHT22;17348;50.948;10.696;2022-09-13T09:43:33;21.20;99.90
30572;DHT22;17348;50.948;10.696;2022-09-13T09:46:39;21.20;99.90
30572;DHT22;17348;50.948;10.696;2022-09-13T09:49:45;21.30;99.90
30572;DHT22;17348;50.948;10.696;2022-09-13T09:53:07;21.40;99.90
30572;DHT22;17348;50.948;10.696;2022-09-13T09:56:22;21.60;99.90
30572;DHT22;17348;50.948;10.696;2022-09-13T09:59:27;21.70;99.90
30572;DHT22;17348;50.948;10.696;2022-09-13T10:02:34;21.70;99.90
30572;DHT22;17348;50.948;10.696;2022-09-13T10:05:38;21.80;99.90
30572;DHT22;17348;50.948;10.696;2022-09-13T10:08:41;21.80;99.90
30572;DHT22;17348;50.948;10.696;2022-09-13T10:11:47;21.90;99.90
30572;DHT22;17348;50.948;10.696;2022-09-13T10:14:51;21.90;99.90
30572;DHT22;17348;50.948;10.696;2022-09-13T10:18:16;21.90;99.90
30572;DHT22;17348;50.948;10.696;2022-09-13T10:21:23;22.00;99.90
30572;DHT22;17348;50.948;10.696;2022-09-13T10:24:26;22.20;99.90
30572;DHT22;17348;50.948;10.696;2022-09-13T10:27:32;22.30;99.90
30572;DHT22;17348;50.948;10.696;2022-09-13T10:30:37;22.50;99.90
30572;DHT22;17348;50.948;10.696;2022-09-13T10:33:56;22.70;99.90
30572;DHT22;17348;50.948;10.696;2022-09-13T10:37:03;22.80;99.90
30572;DHT22;17348;50.948;10.696;2022-09-13T10:40:12;22.80;99.90
30572;DHT22;17348;50.948;10.696;2022-09-13T10:43:26;22.90;99.90
30572;DHT22;17348;50.948;10.696;2022-09-13T10:46:29;23.00;99.90
30572;DHT22;17348;50.948;10.696;2022-09-13T10:49:38;23.10;99.90
30572;DHT22;17348;50.948;10.696;2022-09-13T10:52:43;23.20;99.90
30572;DHT22;17348;50.948;10.696;2022-09-13T10:55:52;23.20;99.90
30572;DHT22;17348;50.948;10.696;2022-09-13T10:59:14;23.20;99.90
30572;DHT22;17348;50.948;10.696;2022-09-13T11:02:31;23.30;99.90
30572;DHT22;17348;50.948;10.696;2022-09-13T11:05:40;23.40;99.90
30572;DHT22;17348;50.948;10.696;2022-09-13T11:08:49;23.40;99.90
30572;DHT22;17348;50.948;10.696;2022-09-13T11:11:58;23.40;99.90
30572;DHT22;17348;50.948;10.696;2022-09-13T11:15:11;23.30;99.90
30572;DHT22;17348;50.948;10.696;2022-09-13T11:21:52;23.40;99.90
30572;DHT22;17348;50.948;10.696;2022-09-13T11:25:21;23.40;99.90
30572;DHT22;17348;50.948;10.696;2022-09-13T11:28:31;23.60;99.90
30572;DHT22;17348;50.948;10.696;2022-09-13T11:31:42;23.70;99.90
30572;DHT22;17348;50.948;10.696;2022-09-13T11:35:00;23.90;99.90
30572;DHT22;17348;50.948;10.696;2022-09-13T11:38:24;24.20;99.90
30572;DHT22;17348;50.948;10.696;2022-09-13T11:41:38;24.30;99.90
30572;DHT22;17348;50.948;10.696;2022-09-13T11:45:14;24.50;99.90
30572;DHT22;17348;50.948;10.696;2022-09-13T11:48:27;24.60;99.90
30572;DHT22;17348;50.948;10.696;2022-09-13T11:51:39;24.70;99.90
30572;DHT22;17348;50.948;10.696;2022-09-13T11:54:58;24.70;99.90
30572;DHT22;17348;50.948;10.696;2022-09-13T11:58:05;24.70;99.90
30572;DHT22;17348;50.948;10.696;2022-09-13T12:01:17;24.80;99.90
30572;DHT22;17348;50.948;10.696;2022-09-13T12:04:24;24.90;99.90
30572;DHT22;17348;50.948;10.696;2022-09-13T12:07:32;24.90;99.90
30572;DHT22;17348;50.948;10.696;2022-09-13T12:10:41;25.10;99.90
30572;DHT22;17348;50.948;10.696;2022-09-13T12:13:48;25.20;99.90
30572;DHT22;17348;50.948;10.696;2022-09-13T12:16:56;25.10;99.90
30572;DHT22;17348;50.948;10.696;2022-09-13T12:19:59;25.00;99.90
30572;DHT22;17348;50.948;10.696;2022-09-13T12:23:06;24.90;99.90
30572;DHT22;17348;50.948;10.696;2022-09-13T12:26:19;25.00;99.90
30572;DHT22;17348;50.948;10.696;2022-09-13T12:29:27;25.00;99.90
30572;DHT22;17348;50.948;10.696;2022-09-13T12:32:30;24.90;99.90
30572;DHT22;17348;50.948;10.696;2022-09-13T12:35:36;24.80;99.90
30572;DHT22;17348;50.948;10.696;2022-09-13T12:39:15;24.80;99.90
30572;DHT22;17348;50.948;10.696;2022-09-13T12:46:01;24.60;99.90
30572;DHT22;17348;50.948;10.696;2022-09-13T12:49:25;24.50;99.90
30572;DHT22;17348;50.948;10.696;2022-09-13T12:52:37;24.60;99.90
30572;DHT22;17348;50.948;10.696;2022-09-13T12:55:55;24.60;99.90
30572;DHT22;17348;50.948;10.696;2022-09-13T13:02:33;24.80;99.90
30572;DHT22;17348;50.948;10.696;2022-09-13T13:05:38;24.90;99.90
30572;DHT22;17348;50.948;10.696;2022-09-13T13:08:49;24.90;99.90
30572;DHT22;17348;50.948;10.696;2022-09-13T13:11:52;24.90;99.90
30572;DHT22;17348;50.948;10.696;2022-09-13T13:14:57;25.00;99.90
30572;DHT22;17348;50.948;10.696;2022-09-13T13:18:19;24.80;99.90
30572;DHT22;17348;50.948;10.696;2022-09-13T13:21:29;24.80;99.90
30572;DHT22;17348;50.948;10.696;2022-09-13T13:24:52;24.90;99.90
30572;DHT22;17348;50.948;10.696;2022-09-13T13:27:56;25.00;99.90
30572;DHT22;17348;50.948;10.696;2022-09-13T13:31:00;25.10;99.90
30572;DHT22;17348;50.948;10.696;2022-09-13T13:34:27;25.10;99.90
30572;DHT22;17348;50.948;10.696;2022-09-13T13:37:33;25.10;99.90
30572;DHT22;17348;50.948;10.696;2022-09-13T13:40:36;25.10;99.90
30572;DHT22;17348;50.948;10.696;2022-09-13T13:43:38;25.10;99.90
30572;DHT22;17348;50.948;10.696;2022-09-13T13:46:43;25.10;99.90
30572;DHT22;17348;50.948;10.696;2022-09-13T13:49:50;25.10;99.90
30572;DHT22;17348;50.948;10.696;2022-09-13T13:52:55;25.20;99.90
30572;DHT22;17348;50.948;10.696;2022-09-13T13:56:14;25.20;99.90
30572;DHT22;17348;50.948;10.696;2022-09-13T13:59:25;25.30;99.90
30572;DHT22;17348;50.948;10.696;2022-09-13T14:02:32;25.40;99.90
30572;DHT22;17348;50.948;10.696;2022-09-13T14:05:42;25.30;99.90
30572;DHT22;17348;50.948;10.696;2022-09-13T14:08:57;25.30;99.90
30572;DHT22;17348;50.948;10.696;2022-09-13T14:12:16;25.30;99.90
30572;DHT22;17348;50.948;10.696;2022-09-13T14:15:31;25.30;99.90
30572;DHT22;17348;50.948;10.696;2022-09-13T14:22:17;25.50;99.90
30572;DHT22;17348;50.948;10.696;2022-09-13T14:25:22;25.60;99.90
30572;DHT22;17348;50.948;10.696;2022-09-13T14:28:26;25.80;99.90
30572;DHT22;17348;50.948;10.696;2022-09-13T14:31:28;25.80;99.90
30572;DHT22;17348;50.948;10.696;2022-09-13T14:34:34;25.90;99.90
30572;DHT22;17348;50.948;10.696;2022-09-13T14:37:37;26.00;99.90
30572;DHT22;17348;50.948;10.696;2022-09-13T14:40:40;26.10;99.90
30572;DHT22;17348;50.948;10.696;2022-09-13T14:43:45;26.00;99.90
30572;DHT22;17348;50.948;10.696;2022-09-13T14:46:51;25.90;99.90
30572;DHT22;17348;50.948;10.696;2022-09-13T14:50:00;25.90;99.90
30572;DHT22;17348;50.948;10.696;2022-09-13T14:53:06;25.90;99.90
30572;DHT22;17348;50.948;10.696;2022-09-13T14:56:15;25.80;99.80
30572;DHT22;17348;50.948;10.696;2022-09-13T14:59:24;25.80;99.80
30572;DHT22;17348;50.948;10.696;2022-09-13T15:02:30;25.70;99.90
30572;DHT22;17348;50.948;10.696;2022-09-13T15:05:35;25.70;99.90
30572;DHT22;17348;50.948;10.696;2022-09-13T15:08:43;25.70;99.90
30572;DHT22;17348;50.948;10.696;2022-09-13T15:11:57;25.60;99.90
30572;DHT22;17348;50.948;10.696;2022-09-13T15:15:31;25.50;99.90
30572;DHT22;17348;50.948;10.696;2022-09-13T15:18:33;25.40;99.90
30572;DHT22;17348;50.948;10.696;2022-09-13T15:21:37;25.30;99.90
30572;DHT22;17348;50.948;10.696;2022-09-13T15:24:43;25.30;99.90
30572;DHT22;17348;50.948;10.696;2022-09-13T15:27:47;25.20;99.90
30572;DHT22;17348;50.948;10.696;2022-09-13T15:30:50;25.10;99.90
30572;DHT22;17348;50.948;10.696;2022-09-13T15:34:10;25.10;99.90
30572;DHT22;17348;50.948;10.696;2022-09-13T15:37:15;25.00;99.90
30572;DHT22;17348;50.948;10.696;2022-09-13T15:40:20;25.10;99.90
30572;DHT22;17348;50.948;10.696;2022-09-13T15:43:22;25.10;99.90
30572;DHT22;17348;50.948;10.696;2022-09-13T15:46:25;25.10;99.90
30572;DHT22;17348;50.948;10.696;2022-09-13T15:49:28;25.10;99.90
30572;DHT22;17348;50.948;10.696;2022-09-13T15:52:32;25.10;99.90
30572;DHT22;17348;50.948;10.696;2022-09-13T15:55:34;25.20;99.90
30572;DHT22;17348;50.948;10.696;2022-09-13T15:58:40;25.20;99.90
30572;DHT22;17348;50.948;10.696;2022-09-13T16:01:43;25.30;99.90
30572;DHT22;17348;50.948;10.696;2022-09-13T16:04:46;25.30;99.90
30572;DHT22;17348;50.948;10.696;2022-09-13T16:07:50;25.30;99.90
30572;DHT22;17348;50.948;10.696;2022-09-13T16:10:53;25.20;99.90
30572;DHT22;17348;50.948;10.696;2022-09-13T16:13:56;25.10;99.90
30572;DHT22;17348;50.948;10.696;2022-09-13T16:16:59;25.00;99.90
30572;DHT22;17348;50.948;10.696;2022-09-13T16:20:03;25.10;99.90
30572;DHT22;17348;50.948;10.696;2022-09-13T16:23:08;25.20;99.90
30572;DHT22;17348;50.948;10.696;2022-09-13T16:26:10;25.30;99.90
30572;DHT22;17348;50.948;10.696;2022-09-13T16:29:12;25.20;99.90
30572;DHT22;17348;50.948;10.696;2022-09-13T16:32:14;25.20;99.90
30572;DHT22;17348;50.948;10.696;2022-09-13T16:35:17;25.10;99.90
30572;DHT22;17348;50.948;10.696;2022-09-13T16:38:22;25.10;99.90
30572;DHT22;17348;50.948;10.696;2022-09-13T16:41:24;25.00;99.90
30572;DHT22;17348;50.948;10.696;2022-09-13T16:44:26;24.90;99.90
30572;DHT22;17348;50.948;10.696;2022-09-13T16:47:28;24.80;99.90
30572;DHT22;17348;50.948;10.696;2022-09-13T16:50:31;24.70;99.90
30572;DHT22;17348;50.948;10.696;2022-09-13T16:53:37;24.60;99.90
30572;DHT22;17348;50.948;10.696;2022-09-13T16:56:39;24.60;99.90
30572;DHT22;17348;50.948;10.696;2022-09-13T16:59:42;24.50;99.90
30572;DHT22;17348;50.948;10.696;2022-09-13T17:02:46;24.40;99.90
30572;DHT22;17348;50.948;10.696;2022-09-13T17:05:56;24.30;99.90
30572;DHT22;17348;50.948;10.696;2022-09-13T17:09:02;24.20;99.90
30572;DHT22;17348;50.948;10.696;2022-09-13T17:12:05;24.10;99.90
30572;DHT22;17348;50.948;10.696;2022-09-13T17:15:08;24.10;99.90
30572;DHT22;17348;50.948;10.696;2022-09-13T17:18:11;24.00;99.90
30572;DHT22;17348;50.948;10.696;2022-09-13T17:21:13;23.80;99.90
30572;DHT22;17348;50.948;10.696;2022-09-13T17:24:17;23.70;99.90
30572;DHT22;17348;50.948;10.696;2022-09-13T17:27:19;23.60;99.90
30572;DHT22;17348;50.948;10.696;2022-09-13T17:30:21;23.50;99.90
30572;DHT22;17348;50.948;10.696;2022-09-13T17:33:24;23.40;99.90
30572;DHT22;17348;50.948;10.696;2022-09-13T17:36:26;23.30;99.90
30572;DHT22;17348;50.948;10.696;2022-09-13T17:39:30;23.20;99.90
30572;DHT22;17348;50.948;10.696;2022-09-13T17:42:33;23.10;99.90
30572;DHT22;17348;50.948;10.696;2022-09-13T17:45:35;23.00;99.90
30572;DHT22;17348;50.948;10.696;2022-09-13T17:48:38;22.90;99.90
30572;DHT22;17348;50.948;10.696;2022-09-13T17:51:40;22.80;99.90
30572;DHT22;17348;50.948;10.696;2022-09-13T17:54:44;22.70;99.90
30572;DHT22;17348;50.948;10.696;2022-09-13T17:57:47;22.60;99.90
30572;DHT22;17348;50.948;10.696;2022-09-13T18:00:50;22.50;99.90
30572;DHT22;17348;50.948;10.696;2022-09-13T18:03:53;22.40;99.90
30572;DHT22;17348;50.948;10.696;2022-09-13T18:06:55;22.30;99.90
30572;DHT22;17348;50.948;10.696;2022-09-13T18:09:59;22.30;99.90
30572;DHT22;17348;50.948;10.696;2022-09-13T18:13:01;22.20;99.90
30572;DHT22;17348;50.948;10.696;2022-09-13T18:16:07;22.10;99.90
30572;DHT22;17348;50.948;10.696;2022-09-13T18:19:10;22.00;99.90
30572;DHT22;17348;50.948;10.696;2022-09-13T18:22:13;21.90;99.90
30572;DHT22;17348;50.948;10.696;2022-09-13T18:25:17;21.80;99.90
30572;DHT22;17348;50.948;10.696;2022-09-13T18:28:23;21.70;99.90
30572;DHT22;17348;50.948;10.696;2022-09-13T18:31:27;21.50;99.90
30572;DHT22;17348;50.948;10.696;2022-09-13T18:34:30;21.40;99.90
30572;DHT22;17348;50.948;10.696;2022-09-13T18:37:32;21.20;99.90
30572;DHT22;17348;50.948;10.696;2022-09-13T18:40:38;21.20;99.90
30572;DHT22;17348;50.948;10.696;2022-09-13T18:43:42;21.10;99.90
30572;DHT22;17348;50.948;10.696;2022-09-13T18:46:45;21.00;99.90
30572;DHT22;17348;50.948;10.696;2022-09-13T18:49:47;20.90;99.90
30572;DHT22;17348;50.948;10.696;2022-09-13T18:52:49;20.80;99.90
30572;DHT22;17348;50.948;10.696;2022-09-13T18:55:53;20.70;99.90
30572;DHT22;17348;50.948;10.696;2022-09-13T18:58:58;20.70;99.90
30572;DHT22;17348;50.948;10.696;2022-09-13T19:02:00;20.60;99.90
30572;DHT22;17348;50.948;10.696;2022-09-13T19:05:03;20.50;99.90
30572;DHT22;17348;50.948;10.696;2022-09-13T19:08:07;20.50;99.90
30572;DHT22;17348;50.948;10.696;2022-09-13T19:11:12;20.40;99.90
30572;DHT22;17348;50.948;10.696;2022-09-13T19:14:15;20.50;99.90
30572;DHT22;17348;50.948;10.696;2022-09-13T19:17:18;20.50;99.90
30572;DHT22;17348;50.948;10.696;2022-09-13T19:20:20;20.50;99.90
30572;DHT22;17348;50.948;10.696;2022-09-13T19:23:23;20.50;99.90
30572;DHT22;17348;50.948;10.696;2022-09-13T19:26:28;20.50;99.90
30572;DHT22;17348;50.948;10.696;2022-09-13T19:29:30;20.50;99.90
30572;DHT22;17348;50.948;10.696;2022-09-13T19:32:33;20.40;99.90